createdAt,value
2022-10-22T00:00:56.862Z,99123.75
2022-10-22T00:03:26.040Z,99123.00
2022-10-22T00:05:54.049Z,99118.75
2022-10-22T00:08:21.983Z,99111.94
2022-10-22T00:10:49.860Z,99113.69
2022-10-22T00:13:17.911Z,99094.88
2022-10-22T00:15:45.657Z,99092.34
2022-10-22T00:18:13.495Z,99088.94
2022-10-22T00:20:43.345Z,99084.69
2022-10-22T00:23:11.113Z,99089.78
2022-10-22T00:25:38.971Z,99115.25
2022-10-22T00:28:06.861Z,99124.75
2022-10-22T00:30:34.882Z,99115.25
2022-10-22T00:33:02.587Z,99129.78
2022-10-22T00:35:30.444Z,99126.34
2022-10-22T00:37:59.575Z,99125.50
2022-10-22T00:40:27.557Z,99117.84
2022-10-22T00:42:55.938Z,99116.19
2022-10-22T00:45:25.669Z,99108.44
2022-10-22T00:47:58.525Z,99099.13
2022-10-22T00:50:31.056Z,99078.63
2022-10-22T00:53:01.326Z,99070.22
2022-10-22T00:55:30.657Z,99063.53
2022-10-22T00:58:00.840Z,99053.31
2022-10-22T01:00:29.132Z,99047.31
2022-10-22T01:02:58.311Z,99036.25
2022-10-22T01:05:29.879Z,99029.47
2022-10-22T01:07:58.115Z,99021.00
2022-10-22T01:10:39.873Z,99009.09
2022-10-22T01:13:18.581Z,99002.34
2022-10-22T01:15:54.845Z,98992.09
2022-10-22T01:18:30.043Z,98983.63
2022-10-22T01:21:07.984Z,98962.41
2022-10-22T01:24:20.483Z,98947.09
2022-10-22T01:27:14.271Z,98931.75
2022-10-22T01:29:48.525Z,98925.88
2022-10-22T01:32:19.004Z,98917.47
2022-10-22T01:34:51.528Z,98902.97
2022-10-22T01:37:22.826Z,98898.75
2022-10-22T01:39:51.672Z,98887.69
2022-10-22T01:42:19.585Z,98883.44
2022-10-22T01:44:50.154Z,98879.22
2022-10-22T01:47:27.438Z,98883.50
2022-10-22T01:50:12.961Z,98881.78
2022-10-22T01:52:53.547Z,98880.03
2022-10-22T01:55:29.901Z,98885.19
2022-10-22T01:58:06.996Z,98883.44
2022-10-22T02:00:40.194Z,98880.88
2022-10-22T02:03:17.451Z,98881.78
2022-10-22T02:05:52.060Z,98868.94
2022-10-22T02:08:23.213Z,98867.28
2022-10-22T02:10:51.964Z,98868.13
2022-10-22T02:13:25.971Z,98869.88
2022-10-22T02:15:56.957Z,98866.47
2022-10-22T02:18:29.075Z,98857.16
2022-10-22T02:20:57.885Z,98853.84
2022-10-22T02:23:25.795Z,98852.91
2022-10-22T02:25:59.920Z,98836.78
2022-10-22T02:28:37.116Z,98830.88
2022-10-22T02:31:14.269Z,98819.00
2022-10-22T02:33:46.944Z,98810.50
2022-10-22T02:36:16.565Z,98798.59
2022-10-22T02:38:45.393Z,98783.31
2022-10-22T02:41:13.181Z,98779.16
2022-10-22T02:43:43.076Z,98757.88
2022-10-22T02:46:12.775Z,98751.13
2022-10-22T02:48:40.552Z,98743.47
2022-10-22T02:51:08.382Z,98729.84
2022-10-22T02:53:36.629Z,98724.03
2022-10-22T02:56:04.645Z,98718.13
2022-10-22T02:58:32.709Z,98709.56
2022-10-22T03:01:00.675Z,98695.19
2022-10-22T03:03:29.808Z,98687.53
2022-10-22T03:05:57.645Z,98682.47
2022-10-22T03:08:25.527Z,98682.38
2022-10-22T03:10:53.365Z,98686.72
2022-10-22T03:13:21.177Z,98687.53
2022-10-22T03:15:50.293Z,98681.56
2022-10-22T03:18:18.628Z,98684.13
2022-10-22T03:20:47.799Z,98673.09
2022-10-22T03:23:18.716Z,98671.44
2022-10-22T03:25:49.302Z,98667.19
2022-10-22T03:28:19.635Z,98659.53
2022-10-22T03:30:47.423Z,98653.56
2022-10-22T03:33:15.240Z,98654.47
2022-10-22T03:35:47.262Z,98642.50
2022-10-22T03:38:17.112Z,98632.34
2022-10-22T03:40:46.924Z,98622.19
2022-10-22T03:43:14.835Z,98606.09
2022-10-22T03:45:42.631Z,98585.00
2022-10-22T03:48:10.447Z,98572.28
2022-10-22T03:50:38.257Z,98547.63
2022-10-22T03:53:07.171Z,98539.22
2022-10-22T03:55:38.080Z,98536.66
2022-10-22T03:58:05.910Z,98526.44
2022-10-22T04:00:33.804Z,98521.41
2022-10-22T04:03:01.539Z,98516.34
2022-10-22T04:05:29.328Z,98510.41
2022-10-22T04:07:57.152Z,98501.13
2022-10-22T04:10:24.920Z,98483.31
2022-10-22T04:12:54.370Z,98476.50
2022-10-22T04:15:22.277Z,98481.66
2022-10-22T04:17:50.005Z,98473.09
2022-10-22T04:20:18.010Z,98483.41
2022-10-22T04:22:45.830Z,98478.31
2022-10-22T04:25:13.559Z,98481.72
2022-10-22T04:27:41.531Z,98473.97
2022-10-22T04:30:12.213Z,98475.72
2022-10-22T04:32:39.984Z,98473.16
2022-10-22T04:35:08.688Z,98476.50
2022-10-22T04:37:36.572Z,98485.88
2022-10-22T04:40:05.254Z,98492.69
2022-10-22T04:42:33.243Z,98494.25
2022-10-22T04:45:01.050Z,98503.63
2022-10-22T04:47:30.172Z,98506.19
2022-10-22T04:49:58.043Z,98509.53
2022-10-22T04:52:25.751Z,98514.59
2022-10-22T04:54:53.535Z,98525.72
2022-10-22T04:57:21.289Z,98526.44
2022-10-22T04:59:49.080Z,98532.34
2022-10-22T05:02:16.927Z,98537.47
2022-10-22T05:04:46.353Z,98546.91
2022-10-22T05:07:14.152Z,98543.41
2022-10-22T05:09:42.163Z,98539.19
2022-10-22T05:12:10.028Z,98539.06
2022-10-22T05:14:41.395Z,98549.38
2022-10-22T05:17:11.768Z,98550.22
2022-10-22T05:19:39.660Z,98553.59
2022-10-22T05:22:08.776Z,98556.09
2022-10-22T05:24:37.148Z,98554.44
2022-10-22T05:27:05.066Z,98559.50
2022-10-22T05:29:32.926Z,98562.06
2022-10-22T05:32:00.679Z,98559.50
2022-10-22T05:34:28.490Z,98565.47
2022-10-22T05:36:56.219Z,98556.91
2022-10-22T05:39:25.447Z,98553.53
2022-10-22T05:41:53.903Z,98557.75
2022-10-22T05:44:21.775Z,98562.06
2022-10-22T05:46:49.582Z,98558.66
2022-10-22T05:49:17.451Z,98560.31
2022-10-22T05:51:45.355Z,98562.91
2022-10-22T05:54:18.876Z,98557.00
2022-10-22T05:56:48.078Z,98552.78
2022-10-22T05:59:15.786Z,98542.47
2022-10-22T06:01:43.698Z,98536.59
2022-10-22T06:04:13.410Z,98531.50
2022-10-22T06:06:43.839Z,98534.09
2022-10-22T06:09:16.778Z,98531.50
2022-10-22T06:11:44.899Z,98531.50
2022-10-22T06:14:14.463Z,98540.00
2022-10-22T06:16:43.287Z,98543.41
2022-10-22T06:19:12.482Z,98548.47
2022-10-22T06:21:40.647Z,98544.22
2022-10-22T06:24:09.225Z,98545.06
2022-10-22T06:26:37.107Z,98540.81
2022-10-22T06:29:05.156Z,98543.41
2022-10-22T06:31:36.835Z,98542.56
2022-10-22T06:34:04.830Z,98539.19
2022-10-22T06:36:32.777Z,98539.91
2022-10-22T06:39:00.631Z,98551.78
2022-10-22T06:41:28.919Z,98559.50
2022-10-22T06:43:58.339Z,98571.41
2022-10-22T06:46:27.002Z,98577.28
2022-10-22T06:48:57.610Z,98584.91
2022-10-22T06:51:26.173Z,98589.16
2022-10-22T06:53:54.510Z,98595.94
2022-10-22T06:56:24.314Z,98600.94
2022-10-22T06:58:53.309Z,98605.19
2022-10-22T07:01:22.848Z,98612.81
2022-10-22T07:03:52.197Z,98624.69
2022-10-22T07:06:22.454Z,98630.63
2022-10-22T07:08:50.459Z,98639.09
2022-10-22T07:11:20.419Z,98645.91
2022-10-22T07:13:48.931Z,98652.72
2022-10-22T07:16:17.785Z,98644.06
2022-10-22T07:18:46.291Z,98651.81
2022-10-22T07:21:16.577Z,98653.50
2022-10-22T07:23:45.988Z,98667.94
2022-10-22T07:26:16.682Z,98684.88
2022-10-22T07:28:44.794Z,98716.28
2022-10-22T07:31:14.342Z,98729.75
2022-10-22T07:33:42.274Z,98759.53
2022-10-22T07:36:17.362Z,98785.81
2022-10-22T07:38:47.806Z,98815.50
2022-10-22T07:41:16.736Z,98851.00
2022-10-22T07:43:44.902Z,98912.13
2022-10-22T07:46:12.715Z,98968.97
2022-10-22T07:48:40.877Z,99018.25
2022-10-22T07:51:08.977Z,99087.13
2022-10-22T07:53:36.893Z,99165.34
2022-10-22T07:56:06.706Z,99220.50
2022-10-22T07:58:35.276Z,99269.78
2022-10-22T08:01:05.647Z,99302.16
2022-10-22T08:03:33.994Z,99322.56
2022-10-22T08:06:02.251Z,99370.31
2022-10-22T08:08:31.020Z,99401.84
2022-10-22T08:11:02.094Z,99444.38
2022-10-22T08:13:31.991Z,99502.13
2022-10-22T08:16:01.258Z,99577.19
2022-10-22T08:18:30.083Z,99635.06
2022-10-22T08:20:58.445Z,99684.47
2022-10-22T08:23:28.745Z,99743.31
2022-10-22T08:25:57.618Z,99780.00
2022-10-22T08:28:25.754Z,99806.41
2022-10-22T08:30:54.913Z,99824.31
2022-10-22T08:33:23.038Z,99841.38
2022-10-22T08:35:51.895Z,99866.13
2022-10-22T08:38:20.260Z,99895.19
2022-10-22T08:40:54.230Z,99924.22
2022-10-22T08:43:42.693Z,99956.69
2022-10-22T08:46:32.228Z,99989.16
2022-10-22T08:49:03.052Z,100013.88
2022-10-22T08:51:36.322Z,100037.72
2022-10-22T08:54:18.063Z,100063.31
2022-10-22T08:56:48.988Z,100078.66
2022-10-22T08:59:22.266Z,100109.50
2022-10-22T09:01:54.604Z,100130.84
2022-10-22T09:04:29.576Z,100152.13
2022-10-22T09:06:59.873Z,100181.28
2022-10-22T09:09:34.061Z,100226.63
2022-10-22T09:12:03.578Z,100250.50
2022-10-22T09:14:31.669Z,100287.22
2022-10-22T09:17:17.359Z,100330.06
2022-10-22T09:19:59.378Z,100378.00
2022-10-22T09:22:38.477Z,100411.38
2022-10-22T09:25:23.924Z,100441.34
2022-10-22T09:27:58.701Z,100465.31
2022-10-22T09:30:30.416Z,100508.19
2022-10-22T09:33:04.082Z,100556.88
2022-10-22T09:35:35.914Z,100628.09
2022-10-22T09:38:09.715Z,100659.75
2022-10-22T09:40:44.881Z,100684.69
2022-10-22T09:43:15.247Z,100706.97
2022-10-22T09:45:44.494Z,100720.59
2022-10-22T09:48:21.502Z,100761.84
2022-10-22T09:50:50.996Z,100775.63
2022-10-22T09:53:21.022Z,100775.63
2022-10-22T09:58:27.907Z,100777.31
2022-10-22T10:00:58.075Z,100767.91
2022-10-22T10:03:29.691Z,100742.19
2022-10-22T10:06:03.051Z,100724.03
2022-10-22T10:08:34.330Z,100718.06
2022-10-22T10:11:07.151Z,100729.22
2022-10-22T10:13:51.824Z,100740.34
2022-10-22T10:16:42.568Z,100751.50
2022-10-22T10:19:57.799Z,100755.78
2022-10-22T10:22:49.551Z,100760.94
2022-10-22T10:25:32.721Z,100769.59
2022-10-22T10:28:18.256Z,100771.19
2022-10-22T10:30:54.524Z,100783.19
2022-10-22T10:33:46.531Z,100778.91
2022-10-22T10:36:25.989Z,100781.53
2022-10-22T10:39:01.105Z,100766.91
2022-10-22T10:41:46.778Z,100767.75
2022-10-22T10:44:31.641Z,100766.84
2022-10-22T10:47:09.793Z,100769.44
2022-10-22T10:49:38.282Z,100780.59
2022-10-22T10:52:21.286Z,100772.03
2022-10-22T10:55:04.485Z,100784.00
2022-10-22T10:57:44.718Z,100798.59
2022-10-22T11:00:17.077Z,100815.69
2022-10-22T11:03:12.946Z,100841.47
2022-10-22T11:05:45.101Z,100867.22
2022-10-22T11:08:20.633Z,100882.69
2022-10-22T11:10:52.874Z,100897.28
2022-10-22T11:13:27.111Z,100922.19
2022-10-22T11:16:01.935Z,100962.47
2022-10-22T11:18:35.424Z,100986.56
2022-10-22T11:21:12.417Z,101012.31
2022-10-22T11:23:47.146Z,101049.25
2022-10-22T11:26:30.367Z,101110.22
2022-10-22T11:29:02.491Z,101178.16
2022-10-22T11:31:33.173Z,101227.97
2022-10-22T11:34:32.048Z,101308.00
2022-10-22T11:36:58.418Z,101363.91
2022-10-22T11:39:42.280Z,101405.25
2022-10-22T11:42:13.909Z,101448.28
2022-10-22T11:47:34.248Z,101544.78
2022-10-22T11:50:19.763Z,101589.53
2022-10-22T11:52:55.277Z,101630.91
2022-10-22T11:55:47.883Z,101686.91
2022-10-22T11:58:32.105Z,101723.13
2022-10-22T12:01:19.726Z,101750.69
2022-10-22T12:03:51.334Z,101776.56
2022-10-22T12:06:23.052Z,101792.94
2022-10-22T12:09:00.414Z,101813.69
2022-10-22T12:11:38.325Z,101829.22
2022-10-22T12:14:26.740Z,101849.94
2022-10-22T12:16:58.788Z,101868.00
2022-10-22T12:19:30.821Z,101880.91
2022-10-22T12:22:01.210Z,101902.47
2022-10-22T12:24:34.119Z,101923.22
2022-10-22T12:27:03.383Z,101933.56
2022-10-22T12:29:33.967Z,101930.09
2022-10-22T12:32:05.113Z,101928.31
2022-10-22T12:34:32.891Z,101959.41
2022-10-22T12:37:00.739Z,101970.63
2022-10-22T12:39:29.957Z,101991.34
2022-10-22T12:41:57.755Z,102002.59
2022-10-22T12:44:26.866Z,101993.06
2022-10-22T12:46:57.064Z,101988.72
2022-10-22T12:49:35.230Z,101997.38
2022-10-22T12:52:07.733Z,101993.00
2022-10-22T12:54:39.133Z,102035.38
2022-10-22T12:57:07.156Z,102021.53
2022-10-22T12:59:38.845Z,101994.72
2022-10-22T13:02:18.527Z,101962.75
2022-10-22T13:05:16.158Z,101937.69
2022-10-22T13:07:47.823Z,101906.59
2022-10-22T13:10:21.288Z,101879.81
2022-10-22T13:12:55.459Z,101849.69
2022-10-22T13:15:35.704Z,101807.34
2022-10-22T13:18:05.872Z,101768.47
2022-10-22T13:20:37.250Z,101738.28
2022-10-22T13:23:06.384Z,101716.69
2022-10-22T13:25:37.238Z,101694.25
2022-10-22T13:28:21.907Z,101682.19
2022-10-22T13:30:56.024Z,101656.25
2022-10-22T13:33:27.263Z,101661.47
2022-10-22T13:35:56.200Z,101656.25
2022-10-22T13:38:26.454Z,101696.81
2022-10-22T13:40:54.577Z,101713.13
2022-10-22T13:43:23.278Z,101755.41
2022-10-22T13:45:56.562Z,101781.31
2022-10-22T13:48:26.466Z,101764.03
2022-10-22T13:50:54.795Z,101742.44
2022-10-22T13:53:25.296Z,101699.34
2022-10-22T13:55:53.408Z,101654.50
2022-10-22T13:58:24.465Z,101598.47
2022-10-22T14:00:57.079Z,101558.78
2022-10-22T14:03:29.321Z,101471.72
2022-10-22T14:05:57.860Z,101433.91
2022-10-22T14:08:26.714Z,101401.13
2022-10-22T14:10:54.748Z,101369.31
2022-10-22T14:13:22.899Z,101318.44
2022-10-22T14:15:52.931Z,101326.25
2022-10-22T14:18:27.380Z,101325.34
2022-10-22T14:20:57.201Z,101335.63
2022-10-22T14:23:27.977Z,101354.59
2022-10-22T14:25:56.223Z,101346.00
2022-10-22T14:28:24.141Z,101339.03
2022-10-22T14:30:53.024Z,101346.84
2022-10-22T14:33:28.787Z,101362.34
2022-10-22T14:35:58.321Z,101358.81
2022-10-22T14:38:26.221Z,101358.81
2022-10-22T14:40:53.961Z,101361.44
2022-10-22T14:43:24.985Z,101351.91
2022-10-22T14:45:53.124Z,101315.75
2022-10-22T14:48:22.464Z,101294.22
2022-10-22T14:50:50.608Z,101297.66
2022-10-22T14:53:18.495Z,101280.44
2022-10-22T14:55:47.372Z,101235.69
2022-10-22T14:58:15.726Z,101198.63
2022-10-22T15:00:44.797Z,101187.47
2022-10-22T15:03:12.802Z,101169.44
2022-10-22T15:05:44.413Z,101143.59
2022-10-22T15:08:13.890Z,101125.50
2022-10-22T15:10:41.855Z,101122.97
2022-10-22T15:13:09.758Z,101119.50
2022-10-22T15:15:39.901Z,101108.31
2022-10-22T15:18:08.288Z,101098.97
2022-10-22T15:20:36.144Z,101053.31
2022-10-22T15:23:05.374Z,101009.47
2022-10-22T15:25:33.136Z,100976.81
2022-10-22T15:28:09.192Z,100942.50
2022-10-22T15:30:37.861Z,100909.84
2022-10-22T15:33:06.526Z,100899.53
2022-10-22T15:35:34.515Z,100872.00
2022-10-22T15:38:02.224Z,100844.72
2022-10-22T15:40:31.346Z,100799.19
2022-10-22T15:42:59.163Z,100760.50
2022-10-22T15:45:26.953Z,100722.69
2022-10-22T15:47:54.766Z,100693.59
2022-10-22T15:50:22.773Z,100656.63
2022-10-22T15:52:50.790Z,100624.88
2022-10-22T15:55:18.854Z,100609.56
2022-10-22T15:57:54.783Z,100564.91
2022-10-22T16:00:24.933Z,100516.03
2022-10-22T16:02:54.912Z,100467.19
2022-10-22T16:05:22.776Z,100432.94
2022-10-22T16:07:51.414Z,100403.91
2022-10-22T16:10:19.368Z,100370.38
2022-10-22T16:12:51.411Z,100360.19
2022-10-22T16:15:19.549Z,100354.16
2022-10-22T16:17:47.315Z,100349.03
2022-10-22T16:20:15.104Z,100349.03
2022-10-22T16:22:43.336Z,100352.47
2022-10-22T16:25:11.298Z,100352.41
2022-10-22T16:27:39.254Z,100365.38
2022-10-22T16:30:09.180Z,100351.56
2022-10-22T16:32:36.998Z,100350.72
2022-10-22T16:35:05.081Z,100344.69
2022-10-22T16:37:32.847Z,100336.13
2022-10-22T16:40:04.387Z,100325.88
2022-10-22T16:42:36.132Z,100308.72
2022-10-22T16:45:04.338Z,100293.28
2022-10-22T16:47:33.523Z,100284.72
2022-10-22T16:50:01.311Z,100265.03
2022-10-22T16:52:29.400Z,100253.94
2022-10-22T16:54:58.086Z,100221.34
2022-10-22T16:57:25.949Z,100206.91
2022-10-22T16:59:53.919Z,100167.44
2022-10-22T17:02:21.888Z,100147.81
2022-10-22T17:04:51.146Z,100123.88
2022-10-22T17:07:18.920Z,100109.28
2022-10-22T17:09:46.703Z,100092.25
2022-10-22T17:12:14.689Z,100076.03
2022-10-22T17:14:42.541Z,100046.13
2022-10-22T17:17:10.293Z,100026.44
2022-10-22T17:19:38.809Z,100014.56
2022-10-22T17:22:08.024Z,99991.44
2022-10-22T17:24:36.148Z,99979.56
2022-10-22T17:29:37.110Z,99947.84
2022-10-22T17:32:05.005Z,99942.75
2022-10-22T17:34:33.515Z,99935.94
2022-10-22T17:37:01.343Z,99929.88
2022-10-22T17:39:30.510Z,99923.06
2022-10-22T17:41:58.426Z,99922.22
2022-10-22T17:44:26.185Z,99925.66
2022-10-22T17:46:53.978Z,99929.09
2022-10-22T17:49:21.943Z,99925.66
2022-10-22T17:51:49.857Z,99927.31
2022-10-22T17:54:17.733Z,99929.09
2022-10-22T17:56:46.976Z,99917.13
2022-10-22T17:59:17.047Z,99899.16
2022-10-22T18:01:47.846Z,99871.00
2022-10-22T18:04:17.905Z,99840.25
2022-10-22T18:06:46.705Z,99801.00
2022-10-22T18:09:18.420Z,99771.22
2022-10-22T18:11:49.055Z,99732.78
2022-10-22T18:14:18.710Z,99700.38
2022-10-22T18:16:47.411Z,99655.09
2022-10-22T18:19:16.879Z,99621.00
2022-10-22T18:21:44.923Z,99589.56
2022-10-22T18:24:15.064Z,99558.88
2022-10-22T18:26:43.263Z,99530.72
2022-10-22T18:29:15.459Z,99502.66
2022-10-22T18:31:43.795Z,99470.25
2022-10-22T18:34:11.941Z,99447.28
2022-10-22T18:36:41.424Z,99427.56
2022-10-22T18:39:09.383Z,99408.16
2022-10-22T18:41:37.683Z,99378.19
2022-10-22T18:44:07.904Z,99355.25
2022-10-22T18:46:38.380Z,99335.72
2022-10-22T18:49:08.026Z,99306.75
2022-10-22T18:51:36.533Z,99279.50
2022-10-22T18:54:18.276Z,99254.91
2022-10-22T18:56:50.408Z,99234.47
2022-10-22T18:59:19.614Z,99211.53
2022-10-22T19:01:49.591Z,99179.13
2022-10-22T19:04:17.432Z,99163.03
2022-10-22T19:06:46.036Z,99151.97
2022-10-22T19:09:14.808Z,99139.19
2022-10-22T19:11:43.869Z,99130.72
2022-10-22T19:14:11.853Z,99112.88
2022-10-22T19:16:39.649Z,99099.28
2022-10-22T19:19:09.229Z,99072.75
2022-10-22T19:21:38.321Z,99064.44
2022-10-22T19:24:06.955Z,99047.34
2022-10-22T19:26:35.318Z,99038.13
2022-10-22T19:29:04.869Z,99022.78
2022-10-22T19:31:32.903Z,99010.78
2022-10-22T19:34:02.197Z,99012.66
2022-10-22T19:36:34.334Z,99008.31
2022-10-22T19:39:03.525Z,99013.47
2022-10-22T19:41:32.524Z,99012.66
2022-10-22T19:44:01.557Z,99004.16
2022-10-22T19:46:32.406Z,98988.00
2022-10-22T19:49:00.535Z,98974.44
2022-10-22T19:51:30.805Z,98958.25
2022-10-22T19:54:01.088Z,98958.25
2022-10-22T19:56:29.684Z,98969.31
2022-10-22T19:58:57.731Z,98971.03
2022-10-22T20:01:26.115Z,98973.66
2022-10-22T20:03:54.654Z,98961.69
2022-10-22T20:06:22.876Z,98954.94
2022-10-22T20:08:53.897Z,98915.81
2022-10-22T20:11:27.384Z,98890.34
2022-10-22T20:13:56.524Z,98873.38
2022-10-22T20:16:28.662Z,98850.41
2022-10-22T20:19:00.785Z,98830.94
2022-10-22T20:21:28.984Z,98811.47
2022-10-22T20:23:57.474Z,98776.63
2022-10-22T20:26:28.844Z,98755.50
2022-10-22T20:28:57.431Z,98743.63
2022-10-22T20:31:27.069Z,98728.34
2022-10-22T20:33:57.377Z,98713.94
2022-10-22T20:36:27.178Z,98701.22
2022-10-22T20:39:00.792Z,98690.97
2022-10-22T20:41:30.880Z,98698.00
2022-10-22T20:43:58.814Z,98688.59
2022-10-22T20:46:29.590Z,98673.31
2022-10-22T20:49:02.211Z,98663.97
2022-10-22T20:51:29.858Z,98647.78
2022-10-22T20:53:57.743Z,98636.78
2022-10-22T20:56:25.951Z,98629.16
2022-10-22T20:59:04.231Z,98613.97
2022-10-22T21:01:34.047Z,98596.09
2022-10-22T21:04:01.787Z,98579.16
2022-10-22T21:06:30.272Z,98574.16
2022-10-22T21:08:58.154Z,98564.03
2022-10-22T21:11:26.095Z,98555.47
2022-10-22T21:13:55.245Z,98550.50
2022-10-22T21:16:23.037Z,98538.53
2022-10-22T21:18:50.826Z,98527.59
2022-10-22T21:21:19.941Z,98513.09
2022-10-22T21:23:50.104Z,98494.53
2022-10-22T21:26:18.196Z,98484.38
2022-10-22T21:28:46.149Z,98463.22
2022-10-22T21:31:21.597Z,98445.44
2022-10-22T21:33:50.444Z,98423.34
2022-10-22T21:36:22.751Z,98417.47
2022-10-22T21:38:52.077Z,98425.09
2022-10-22T21:41:21.933Z,98433.56
2022-10-22T21:43:49.889Z,98456.47
2022-10-22T21:46:21.198Z,98481.81
2022-10-22T21:48:53.845Z,98500.50
2022-10-22T21:51:22.127Z,98523.41
2022-10-22T21:56:24.996Z,98558.88
2022-10-22T21:58:53.231Z,98575.91
2022-10-22T22:01:23.258Z,98588.63
2022-10-22T22:06:35.928Z,98607.22
2022-10-22T22:09:05.521Z,98604.66
2022-10-22T22:11:33.632Z,98615.72
2022-10-22T22:14:01.464Z,98613.97
2022-10-22T22:16:31.707Z,98619.03
2022-10-22T22:19:01.713Z,98630.19
2022-10-22T22:21:30.156Z,98632.66
2022-10-22T22:23:59.871Z,98641.22
2022-10-22T22:26:30.220Z,98636.06
2022-10-22T22:28:59.592Z,98637.72
2022-10-22T22:31:29.392Z,98647.13
2022-10-22T22:34:01.155Z,98649.69
2022-10-22T22:36:33.020Z,98636.88
2022-10-22T22:39:02.203Z,98638.63
2022-10-22T22:41:29.980Z,98634.41
2022-10-22T22:43:57.890Z,98625.94
2022-10-22T22:46:25.758Z,98626.03
2022-10-22T22:48:53.783Z,98610.63
2022-10-22T22:51:22.008Z,98601.44
2022-10-22T22:53:49.948Z,98586.97
2022-10-22T22:56:21.645Z,98578.50
2022-10-22T22:58:50.385Z,98579.41
2022-10-22T23:01:19.973Z,98578.50
2022-10-22T23:03:50.091Z,98571.78
2022-10-22T23:06:17.945Z,98575.19
2022-10-22T23:08:45.984Z,98575.19
2022-10-22T23:11:15.330Z,98588.81
2022-10-22T23:13:45.102Z,98583.66
2022-10-22T23:16:16.475Z,98588.72
2022-10-22T23:18:45.160Z,98592.13
2022-10-22T23:21:15.667Z,98593.78
2022-10-22T23:23:45.620Z,98595.53
2022-10-22T23:26:14.972Z,98596.38
2022-10-22T23:28:44.141Z,98596.38
2022-10-22T23:31:13.362Z,98597.19
2022-10-22T23:33:41.386Z,98597.19
2022-10-22T23:36:09.601Z,98599.69
2022-10-22T23:38:39.108Z,98599.69
2022-10-22T23:41:07.726Z,98603.19
2022-10-22T23:43:37.633Z,98598.09
2022-10-22T23:46:08.858Z,98580.16
2022-10-22T23:48:37.160Z,98578.59
2022-10-22T23:51:05.832Z,98570.13
2022-10-22T23:53:33.699Z,98565.03
2022-10-22T23:56:05.683Z,98559.25
2022-10-22T23:58:34.469Z,98545.63
